sensor_id;sensor_type;location;lat;lon;timestamp;P1;durP1;ratioP1;P2;durP2;ratioP2
3817;SDS011;1924;48.078;11.516;2023-05-17T00:00:56;29.50;;;0.80;;
3817;SDS011;1924;48.078;11.516;2023-05-17T00:03:23;29.20;;;0.80;;
3817;SDS011;1924;48.078;11.516;2023-05-17T00:05:49;29.60;;;0.90;;
3817;SDS011;1924;48.078;11.516;2023-05-17T00:08:17;29.50;;;0.80;;
3817;SDS011;1924;48.078;11.516;2023-05-17T00:10:43;29.50;;;0.80;;
3817;SDS011;1924;48.078;11.516;2023-05-17T00:13:10;29.40;;;0.80;;
3817;SDS011;1924;48.078;11.516;2023-05-17T00:15:37;29.50;;;0.80;;
3817;SDS011;1924;48.078;11.516;2023-05-17T00:18:05;29.50;;;0.80;;
3817;SDS011;1924;48.078;11.516;2023-05-17T00:20:32;29.47;;;0.80;;
3817;SDS011;1924;48.078;11.516;2023-05-17T00:22:59;29.57;;;0.80;;
3817;SDS011;1924;48.078;11.516;2023-05-17T00:25:27;29.50;;;0.80;;
3817;SDS011;1924;48.078;11.516;2023-05-17T00:27:53;29.40;;;0.80;;
3817;SDS011;1924;48.078;11.516;2023-05-17T00:30:20;29.50;;;0.80;;
3817;SDS011;1924;48.078;11.516;2023-05-17T00:32:47;29.50;;;0.80;;
3817;SDS011;1924;48.078;11.516;2023-05-17T00:35:15;29.60;;;0.80;;
3817;SDS011;1924;48.078;11.516;2023-05-17T00:37:41;29.60;;;0.80;;
3817;SDS011;1924;48.078;11.516;2023-05-17T00:40:12;29.57;;;0.80;;
3817;SDS011;1924;48.078;11.516;2023-05-17T00:42:39;29.70;;;0.80;;
3817;SDS011;1924;48.078;11.516;2023-05-17T00:45:06;29.60;;;0.80;;
3817;SDS011;1924;48.078;11.516;2023-05-17T00:47:34;29.50;;;0.80;;
3817;SDS011;1924;48.078;11.516;2023-05-17T00:50:00;29.37;;;0.80;;
3817;SDS011;1924;48.078;11.516;2023-05-17T00:52:28;29.40;;;0.80;;
3817;SDS011;1924;48.078;11.516;2023-05-17T00:54:55;29.40;;;0.80;;
3817;SDS011;1924;48.078;11.516;2023-05-17T00:57:22;29.60;;;0.80;;
3817;SDS011;1924;48.078;11.516;2023-05-17T00:59:49;29.50;;;0.80;;
3817;SDS011;1924;48.078;11.516;2023-05-17T01:02:17;29.70;;;0.80;;
3817;SDS011;1924;48.078;11.516;2023-05-17T01:04:43;29.60;;;0.83;;
3817;SDS011;1924;48.078;11.516;2023-05-17T01:07:11;29.50;;;0.80;;
3817;SDS011;1924;48.078;11.516;2023-05-17T01:09:39;29.40;;;0.80;;
3817;SDS011;1924;48.078;11.516;2023-05-17T01:12:07;29.60;;;0.80;;
3817;SDS011;1924;48.078;11.516;2023-05-17T01:14:49;29.50;;;0.80;;
3817;SDS011;1924;48.078;11.516;2023-05-17T01:17:27;29.60;;;0.80;;
3817;SDS011;1924;48.078;11.516;2023-05-17T01:20:02;29.50;;;0.80;;
3817;SDS011;1924;48.078;11.516;2023-05-17T01:22:37;29.60;;;0.80;;
3817;SDS011;1924;48.078;11.516;2023-05-17T01:25:24;29.50;;;0.80;;
3817;SDS011;1924;48.078;11.516;2023-05-17T01:27:57;29.60;;;0.80;;
3817;SDS011;1924;48.078;11.516;2023-05-17T01:30:26;29.37;;;0.80;;
3817;SDS011;1924;48.078;11.516;2023-05-17T01:32:55;29.40;;;0.80;;
3817;SDS011;1924;48.078;11.516;2023-05-17T01:35:23;29.40;;;0.80;;
3817;SDS011;1924;48.078;11.516;2023-05-17T01:37:51;29.47;;;0.80;;
3817;SDS011;1924;48.078;11.516;2023-05-17T01:40:17;29.60;;;0.80;;
3817;SDS011;1924;48.078;11.516;2023-05-17T01:42:46;29.40;;;0.80;;
3817;SDS011;1924;48.078;11.516;2023-05-17T01:45:20;29.50;;;0.80;;
3817;SDS011;1924;48.078;11.516;2023-05-17T01:47:52;29.20;;;0.80;;
3817;SDS011;1924;48.078;11.516;2023-05-17T01:50:28;29.40;;;0.80;;
3817;SDS011;1924;48.078;11.516;2023-05-17T01:52:58;29.50;;;0.80;;
3817;SDS011;1924;48.078;11.516;2023-05-17T01:55:33;29.40;;;0.80;;
3817;SDS011;1924;48.078;11.516;2023-05-17T01:58:06;29.40;;;0.80;;
3817;SDS011;1924;48.078;11.516;2023-05-17T02:00:36;29.40;;;0.80;;
3817;SDS011;1924;48.078;11.516;2023-05-17T02:03:04;29.37;;;0.80;;
3817;SDS011;1924;48.078;11.516;2023-05-17T02:05:31;29.50;;;0.80;;
3817;SDS011;1924;48.078;11.516;2023-05-17T02:07:58;29.30;;;0.80;;
3817;SDS011;1924;48.078;11.516;2023-05-17T02:10:24;29.30;;;0.80;;
3817;SDS011;1924;48.078;11.516;2023-05-17T02:12:51;29.20;;;0.80;;
3817;SDS011;1924;48.078;11.516;2023-05-17T02:15:18;29.40;;;0.80;;
3817;SDS011;1924;48.078;11.516;2023-05-17T02:17:46;29.20;;;0.80;;
3817;SDS011;1924;48.078;11.516;2023-05-17T02:20:13;29.20;;;0.80;;
3817;SDS011;1924;48.078;11.516;2023-05-17T02:22:39;29.20;;;0.80;;
3817;SDS011;1924;48.078;11.516;2023-05-17T02:25:06;29.20;;;0.80;;
3817;SDS011;1924;48.078;11.516;2023-05-17T02:27:33;29.30;;;0.80;;
3817;SDS011;1924;48.078;11.516;2023-05-17T02:30:00;29.30;;;0.80;;
3817;SDS011;1924;48.078;11.516;2023-05-17T02:32:28;29.40;;;0.80;;
3817;SDS011;1924;48.078;11.516;2023-05-17T02:34:56;29.40;;;0.80;;
3817;SDS011;1924;48.078;11.516;2023-05-17T02:37:23;29.27;;;0.80;;
3817;SDS011;1924;48.078;11.516;2023-05-17T02:39:50;29.30;;;0.80;;
3817;SDS011;1924;48.078;11.516;2023-05-17T04:01:27;29.30;;;0.80;;
3817;SDS011;1924;48.078;11.516;2023-05-17T04:03:53;29.10;;;0.80;;
3817;SDS011;1924;48.078;11.516;2023-05-17T04:06:20;29.20;;;0.80;;
3817;SDS011;1924;48.078;11.516;2023-05-17T04:08:47;28.90;;;0.80;;
3817;SDS011;1924;48.078;11.516;2023-05-17T04:11:13;29.00;;;0.80;;
3817;SDS011;1924;48.078;11.516;2023-05-17T04:13:40;29.00;;;0.80;;
3817;SDS011;1924;48.078;11.516;2023-05-17T04:16:07;29.00;;;0.80;;
3817;SDS011;1924;48.078;11.516;2023-05-17T04:18:36;29.07;;;0.80;;
3817;SDS011;1924;48.078;11.516;2023-05-17T04:21:03;29.00;;;0.80;;
3817;SDS011;1924;48.078;11.516;2023-05-17T04:23:31;29.10;;;0.80;;
3817;SDS011;1924;48.078;11.516;2023-05-17T04:25:59;29.10;;;0.80;;
3817;SDS011;1924;48.078;11.516;2023-05-17T04:28:25;29.10;;;0.80;;
3817;SDS011;1924;48.078;11.516;2023-05-17T04:30:52;29.00;;;0.80;;
3817;SDS011;1924;48.078;11.516;2023-05-17T04:33:21;28.80;;;0.80;;
3817;SDS011;1924;48.078;11.516;2023-05-17T04:35:49;28.90;;;0.80;;
3817;SDS011;1924;48.078;11.516;2023-05-17T04:38:19;28.90;;;0.80;;
3817;SDS011;1924;48.078;11.516;2023-05-17T04:40:46;28.90;;;0.80;;
3817;SDS011;1924;48.078;11.516;2023-05-17T04:43:13;28.87;;;0.80;;
3817;SDS011;1924;48.078;11.516;2023-05-17T04:45:40;29.00;;;0.80;;
3817;SDS011;1924;48.078;11.516;2023-05-17T04:48:07;29.00;;;0.80;;
3817;SDS011;1924;48.078;11.516;2023-05-17T04:50:34;28.90;;;0.80;;
3817;SDS011;1924;48.078;11.516;2023-05-17T04:53:02;28.80;;;0.80;;
3817;SDS011;1924;48.078;11.516;2023-05-17T04:55:29;28.80;;;0.90;;
3817;SDS011;1924;48.078;11.516;2023-05-17T04:57:56;28.70;;;0.80;;
3817;SDS011;1924;48.078;11.516;2023-05-17T05:00:22;28.80;;;0.80;;
3817;SDS011;1924;48.078;11.516;2023-05-17T05:02:49;28.80;;;0.80;;
3817;SDS011;1924;48.078;11.516;2023-05-17T05:05:16;28.80;;;0.80;;
3817;SDS011;1924;48.078;11.516;2023-05-17T05:07:43;28.70;;;0.80;;
3817;SDS011;1924;48.078;11.516;2023-05-17T05:10:11;28.70;;;0.80;;
3817;SDS011;1924;48.078;11.516;2023-05-17T05:12:38;28.70;;;0.80;;
3817;SDS011;1924;48.078;11.516;2023-05-17T05:15:05;28.70;;;0.80;;
3817;SDS011;1924;48.078;11.516;2023-05-17T05:17:33;28.67;;;0.80;;
3817;SDS011;1924;48.078;11.516;2023-05-17T05:19:59;28.80;;;0.80;;
3817;SDS011;1924;48.078;11.516;2023-05-17T05:22:26;28.60;;;0.80;;
3817;SDS011;1924;48.078;11.516;2023-05-17T05:24:54;28.73;;;0.80;;
3817;SDS011;1924;48.078;11.516;2023-05-17T05:27:22;28.57;;;0.80;;
3817;SDS011;1924;48.078;11.516;2023-05-17T05:29:49;28.70;;;0.80;;
3817;SDS011;1924;48.078;11.516;2023-05-17T05:32:15;28.70;;;0.80;;
3817;SDS011;1924;48.078;11.516;2023-05-17T05:34:43;28.50;;;0.80;;
3817;SDS011;1924;48.078;11.516;2023-05-17T05:37:09;28.60;;;0.80;;
3817;SDS011;1924;48.078;11.516;2023-05-17T05:42:39;28.70;;;0.80;;
3817;SDS011;1924;48.078;11.516;2023-05-17T05:45:06;28.50;;;0.80;;
3817;SDS011;1924;48.078;11.516;2023-05-17T05:47:33;28.60;;;0.80;;
3817;SDS011;1924;48.078;11.516;2023-05-17T05:50:00;28.50;;;0.80;;
3817;SDS011;1924;48.078;11.516;2023-05-17T05:52:26;28.50;;;0.80;;
3817;SDS011;1924;48.078;11.516;2023-05-17T05:54:53;28.40;;;0.80;;
3817;SDS011;1924;48.078;11.516;2023-05-17T05:57:20;28.30;;;0.80;;
3817;SDS011;1924;48.078;11.516;2023-05-17T05:59:48;28.40;;;0.80;;
3817;SDS011;1924;48.078;11.516;2023-05-17T06:02:14;28.30;;;0.80;;
3817;SDS011;1924;48.078;11.516;2023-05-17T06:04:43;28.50;;;0.80;;
3817;SDS011;1924;48.078;11.516;2023-05-17T06:07:10;28.40;;;0.80;;
3817;SDS011;1924;48.078;11.516;2023-05-17T06:09:37;28.27;;;0.80;;
3817;SDS011;1924;48.078;11.516;2023-05-17T06:12:04;28.40;;;0.80;;
3817;SDS011;1924;48.078;11.516;2023-05-17T06:14:31;28.30;;;0.80;;
3817;SDS011;1924;48.078;11.516;2023-05-17T06:16:59;28.20;;;0.80;;
3817;SDS011;1924;48.078;11.516;2023-05-17T06:19:25;28.17;;;0.80;;
3817;SDS011;1924;48.078;11.516;2023-05-17T06:21:52;28.20;;;0.80;;
3817;SDS011;1924;48.078;11.516;2023-05-17T06:24:19;28.20;;;0.80;;
3817;SDS011;1924;48.078;11.516;2023-05-17T06:26:45;28.10;;;0.80;;
3817;SDS011;1924;48.078;11.516;2023-05-17T06:29:12;28.10;;;0.80;;
3817;SDS011;1924;48.078;11.516;2023-05-17T06:31:39;28.00;;;0.80;;
3817;SDS011;1924;48.078;11.516;2023-05-17T06:34:07;27.80;;;0.80;;
3817;SDS011;1924;48.078;11.516;2023-05-17T06:36:33;27.80;;;0.80;;
3817;SDS011;1924;48.078;11.516;2023-05-17T06:39:00;27.77;;;0.80;;
3817;SDS011;1924;48.078;11.516;2023-05-17T06:41:27;27.60;;;0.80;;
3817;SDS011;1924;48.078;11.516;2023-05-17T06:43:53;27.67;;;0.80;;
3817;SDS011;1924;48.078;11.516;2023-05-17T06:46:20;27.87;;;0.80;;
3817;SDS011;1924;48.078;11.516;2023-05-17T06:48:47;27.70;;;0.80;;
3817;SDS011;1924;48.078;11.516;2023-05-17T06:51:15;27.50;;;0.80;;
3817;SDS011;1924;48.078;11.516;2023-05-17T06:53:41;27.40;;;0.80;;
3817;SDS011;1924;48.078;11.516;2023-05-17T06:56:08;27.60;;;0.80;;
3817;SDS011;1924;48.078;11.516;2023-05-17T06:58:35;27.50;;;0.70;;
3817;SDS011;1924;48.078;11.516;2023-05-17T07:01:01;27.40;;;0.77;;
3817;SDS011;1924;48.078;11.516;2023-05-17T07:03:28;27.60;;;0.80;;
3817;SDS011;1924;48.078;11.516;2023-05-17T07:05:55;27.60;;;0.80;;
3817;SDS011;1924;48.078;11.516;2023-05-17T07:08:23;27.60;;;0.73;;
3817;SDS011;1924;48.078;11.516;2023-05-17T07:10:50;27.60;;;0.80;;
3817;SDS011;1924;48.078;11.516;2023-05-17T07:13:17;27.50;;;0.80;;
3817;SDS011;1924;48.078;11.516;2023-05-17T07:15:43;27.50;;;0.77;;
3817;SDS011;1924;48.078;11.516;2023-05-17T07:18:11;27.40;;;0.70;;
3817;SDS011;1924;48.078;11.516;2023-05-17T07:20:37;27.60;;;0.80;;
3817;SDS011;1924;48.078;11.516;2023-05-17T07:23:04;27.50;;;0.70;;
3817;SDS011;1924;48.078;11.516;2023-05-17T07:25:33;27.40;;;0.70;;
3817;SDS011;1924;48.078;11.516;2023-05-17T07:28:02;27.50;;;0.80;;
3817;SDS011;1924;48.078;11.516;2023-05-17T07:30:29;27.60;;;0.73;;
3817;SDS011;1924;48.078;11.516;2023-05-17T07:32:56;27.40;;;0.80;;
3817;SDS011;1924;48.078;11.516;2023-05-17T07:35:23;27.37;;;0.80;;
3817;SDS011;1924;48.078;11.516;2023-05-17T07:37:49;27.50;;;0.70;;
3817;SDS011;1924;48.078;11.516;2023-05-17T07:40:16;27.43;;;0.73;;
3817;SDS011;1924;48.078;11.516;2023-05-17T07:42:47;27.40;;;0.70;;
3817;SDS011;1924;48.078;11.516;2023-05-17T07:45:14;27.40;;;0.70;;
3817;SDS011;1924;48.078;11.516;2023-05-17T07:47:40;27.30;;;0.80;;
3817;SDS011;1924;48.078;11.516;2023-05-17T07:50:07;27.50;;;0.80;;
3817;SDS011;1924;48.078;11.516;2023-05-17T07:52:35;27.57;;;0.80;;
3817;SDS011;1924;48.078;11.516;2023-05-17T07:55:02;27.50;;;0.80;;
3817;SDS011;1924;48.078;11.516;2023-05-17T07:57:29;27.57;;;0.80;;
3817;SDS011;1924;48.078;11.516;2023-05-17T07:59:57;27.60;;;0.80;;
3817;SDS011;1924;48.078;11.516;2023-05-17T08:02:24;27.60;;;0.80;;
3817;SDS011;1924;48.078;11.516;2023-05-17T08:04:51;27.50;;;0.70;;
3817;SDS011;1924;48.078;11.516;2023-05-17T08:07:17;27.50;;;0.80;;
3817;SDS011;1924;48.078;11.516;2023-05-17T08:09:44;27.40;;;0.80;;
3817;SDS011;1924;48.078;11.516;2023-05-17T08:12:11;27.30;;;0.70;;
3817;SDS011;1924;48.078;11.516;2023-05-17T08:14:38;27.30;;;0.80;;
3817;SDS011;1924;48.078;11.516;2023-05-17T08:17:06;27.30;;;0.80;;
3817;SDS011;1924;48.078;11.516;2023-05-17T08:19:33;27.30;;;0.80;;
3817;SDS011;1924;48.078;11.516;2023-05-17T08:22:00;27.30;;;0.80;;
3817;SDS011;1924;48.078;11.516;2023-05-17T08:24:27;27.30;;;0.80;;
3817;SDS011;1924;48.078;11.516;2023-05-17T08:26:54;27.37;;;0.70;;
3817;SDS011;1924;48.078;11.516;2023-05-17T08:29:21;27.27;;;0.80;;
3817;SDS011;1924;48.078;11.516;2023-05-17T08:31:47;27.50;;;0.80;;
3817;SDS011;1924;48.078;11.516;2023-05-17T08:34:16;27.30;;;0.70;;
3817;SDS011;1924;48.078;11.516;2023-05-17T08:36:43;27.30;;;0.80;;
3817;SDS011;1924;48.078;11.516;2023-05-17T08:39:10;27.30;;;0.70;;
3817;SDS011;1924;48.078;11.516;2023-05-17T08:41:37;27.30;;;0.70;;
3817;SDS011;1924;48.078;11.516;2023-05-17T08:44:04;27.40;;;0.80;;
3817;SDS011;1924;48.078;11.516;2023-05-17T08:46:31;27.30;;;0.70;;
3817;SDS011;1924;48.078;11.516;2023-05-17T08:49:00;27.20;;;0.70;;
3817;SDS011;1924;48.078;11.516;2023-05-17T08:51:31;27.30;;;0.80;;
3817;SDS011;1924;48.078;11.516;2023-05-17T08:53:57;27.40;;;0.80;;
3817;SDS011;1924;48.078;11.516;2023-05-17T08:56:29;27.40;;;0.73;;
3817;SDS011;1924;48.078;11.516;2023-05-17T08:58:56;27.30;;;0.80;;
3817;SDS011;1924;48.078;11.516;2023-05-17T09:01:24;27.50;;;0.80;;
3817;SDS011;1924;48.078;11.516;2023-05-17T09:03:52;27.37;;;0.70;;
3817;SDS011;1924;48.078;11.516;2023-05-17T09:06:19;27.40;;;0.70;;
3817;SDS011;1924;48.078;11.516;2023-05-17T09:08:48;27.40;;;0.80;;
3817;SDS011;1924;48.078;11.516;2023-05-17T09:11:21;27.40;;;0.70;;
3817;SDS011;1924;48.078;11.516;2023-05-17T09:13:50;27.40;;;0.70;;
3817;SDS011;1924;48.078;11.516;2023-05-17T09:16:17;27.30;;;0.80;;
3817;SDS011;1924;48.078;11.516;2023-05-17T09:18:51;27.60;;;0.80;;
3817;SDS011;1924;48.078;11.516;2023-05-17T09:21:19;27.40;;;0.80;;
3817;SDS011;1924;48.078;11.516;2023-05-17T09:23:48;27.50;;;0.70;;
3817;SDS011;1924;48.078;11.516;2023-05-17T09:26:16;27.27;;;0.80;;
3817;SDS011;1924;48.078;11.516;2023-05-17T09:28:43;27.43;;;0.70;;
3817;SDS011;1924;48.078;11.516;2023-05-17T09:31:13;27.40;;;0.80;;
3817;SDS011;1924;48.078;11.516;2023-05-17T09:33:41;27.60;;;0.80;;
3817;SDS011;1924;48.078;11.516;2023-05-17T09:36:15;27.60;;;0.73;;
3817;SDS011;1924;48.078;11.516;2023-05-17T09:38:43;27.50;;;0.70;;
3817;SDS011;1924;48.078;11.516;2023-05-17T09:41:19;27.50;;;0.70;;
3817;SDS011;1924;48.078;11.516;2023-05-17T09:43:47;27.60;;;0.70;;
3817;SDS011;1924;48.078;11.516;2023-05-17T09:46:14;27.37;;;0.70;;
3817;SDS011;1924;48.078;11.516;2023-05-17T09:48:41;27.70;;;0.73;;
3817;SDS011;1924;48.078;11.516;2023-05-17T09:51:10;27.67;;;0.70;;
3817;SDS011;1924;48.078;11.516;2023-05-17T09:53:37;27.60;;;0.80;;
3817;SDS011;1924;48.078;11.516;2023-05-17T09:56:08;27.57;;;0.70;;
3817;SDS011;1924;48.078;11.516;2023-05-17T09:58:36;27.67;;;0.80;;
3817;SDS011;1924;48.078;11.516;2023-05-17T10:01:03;27.50;;;0.70;;
3817;SDS011;1924;48.078;11.516;2023-05-17T10:03:31;27.50;;;0.70;;
3817;SDS011;1924;48.078;11.516;2023-05-17T10:06:00;27.50;;;0.70;;
3817;SDS011;1924;48.078;11.516;2023-05-17T10:08:29;27.40;;;0.80;;
3817;SDS011;1924;48.078;11.516;2023-05-17T10:10:57;27.60;;;0.70;;
3817;SDS011;1924;48.078;11.516;2023-05-17T10:13:32;27.50;;;0.80;;
3817;SDS011;1924;48.078;11.516;2023-05-17T10:16:01;27.47;;;0.73;;
3817;SDS011;1924;48.078;11.516;2023-05-17T10:18:28;27.50;;;0.70;;
3817;SDS011;1924;48.078;11.516;2023-05-17T10:20:57;27.50;;;0.70;;
3817;SDS011;1924;48.078;11.516;2023-05-17T10:23:25;27.50;;;0.80;;
3817;SDS011;1924;48.078;11.516;2023-05-17T10:25:52;27.30;;;0.70;;
3817;SDS011;1924;48.078;11.516;2023-05-17T10:28:20;27.50;;;0.70;;
3817;SDS011;1924;48.078;11.516;2023-05-17T10:30:49;27.80;;;0.70;;
3817;SDS011;1924;48.078;11.516;2023-05-17T10:33:19;27.60;;;0.70;;
3817;SDS011;1924;48.078;11.516;2023-05-17T10:35:46;27.60;;;0.70;;
3817;SDS011;1924;48.078;11.516;2023-05-17T10:38:16;27.60;;;0.80;;
3817;SDS011;1924;48.078;11.516;2023-05-17T10:40:43;27.70;;;0.70;;
3817;SDS011;1924;48.078;11.516;2023-05-17T10:43:12;27.50;;;0.70;;
3817;SDS011;1924;48.078;11.516;2023-05-17T10:45:40;27.60;;;0.80;;
3817;SDS011;1924;48.078;11.516;2023-05-17T10:48:08;27.70;;;0.70;;
3817;SDS011;1924;48.078;11.516;2023-05-17T10:50:36;27.57;;;0.70;;
3817;SDS011;1924;48.078;11.516;2023-05-17T10:53:06;27.70;;;0.70;;
3817;SDS011;1924;48.078;11.516;2023-05-17T10:55:36;27.70;;;0.70;;
3817;SDS011;1924;48.078;11.516;2023-05-17T10:58:11;27.90;;;0.80;;
3817;SDS011;1924;48.078;11.516;2023-05-17T11:00:41;27.80;;;0.80;;
3817;SDS011;1924;48.078;11.516;2023-05-17T11:03:14;27.70;;;0.73;;
3817;SDS011;1924;48.078;11.516;2023-05-17T11:05:42;27.80;;;0.70;;
3817;SDS011;1924;48.078;11.516;2023-05-17T11:08:13;27.80;;;0.80;;
3817;SDS011;1924;48.078;11.516;2023-05-17T11:13:33;27.87;;;0.70;;
3817;SDS011;1924;48.078;11.516;2023-05-17T11:16:08;28.00;;;0.70;;
3817;SDS011;1924;48.078;11.516;2023-05-17T11:18:49;27.90;;;0.70;;
3817;SDS011;1924;48.078;11.516;2023-05-17T11:21:16;27.80;;;0.80;;
3817;SDS011;1924;48.078;11.516;2023-05-17T11:23:44;27.90;;;0.70;;
3817;SDS011;1924;48.078;11.516;2023-05-17T11:26:16;28.00;;;0.80;;
3817;SDS011;1924;48.078;11.516;2023-05-17T11:28:46;28.00;;;0.70;;
3817;SDS011;1924;48.078;11.516;2023-05-17T11:31:14;28.00;;;0.80;;
3817;SDS011;1924;48.078;11.516;2023-05-17T11:33:42;28.10;;;0.80;;
3817;SDS011;1924;48.078;11.516;2023-05-17T11:36:17;28.00;;;0.73;;
3817;SDS011;1924;48.078;11.516;2023-05-17T11:38:47;28.00;;;0.77;;
3817;SDS011;1924;48.078;11.516;2023-05-17T11:41:16;28.10;;;0.70;;
3817;SDS011;1924;48.078;11.516;2023-05-17T11:43:47;28.10;;;0.80;;
3817;SDS011;1924;48.078;11.516;2023-05-17T11:46:20;28.00;;;0.70;;
3817;SDS011;1924;48.078;11.516;2023-05-17T11:48:51;28.10;;;0.70;;
3817;SDS011;1924;48.078;11.516;2023-05-17T11:51:20;28.10;;;0.70;;
3817;SDS011;1924;48.078;11.516;2023-05-17T11:53:47;28.00;;;0.70;;
3817;SDS011;1924;48.078;11.516;2023-05-17T11:56:14;27.90;;;0.80;;
3817;SDS011;1924;48.078;11.516;2023-05-17T11:58:41;28.00;;;0.70;;
3817;SDS011;1924;48.078;11.516;2023-05-17T12:01:09;28.00;;;0.70;;
3817;SDS011;1924;48.078;11.516;2023-05-17T12:03:36;28.00;;;0.70;;
3817;SDS011;1924;48.078;11.516;2023-05-17T12:06:03;27.90;;;0.80;;
3817;SDS011;1924;48.078;11.516;2023-05-17T12:08:35;27.90;;;0.80;;
3817;SDS011;1924;48.078;11.516;2023-05-17T12:11:03;28.00;;;0.70;;
3817;SDS011;1924;48.078;11.516;2023-05-17T12:13:31;27.90;;;0.80;;
3817;SDS011;1924;48.078;11.516;2023-05-17T12:16:00;28.00;;;0.77;;
3817;SDS011;1924;48.078;11.516;2023-05-17T12:18:33;28.00;;;0.70;;
3817;SDS011;1924;48.078;11.516;2023-05-17T12:21:01;27.80;;;0.70;;
3817;SDS011;1924;48.078;11.516;2023-05-17T12:23:30;28.10;;;0.70;;
3817;SDS011;1924;48.078;11.516;2023-05-17T12:26:02;28.30;;;0.70;;
3817;SDS011;1924;48.078;11.516;2023-05-17T12:28:30;28.47;;;0.80;;
3817;SDS011;1924;48.078;11.516;2023-05-17T12:30:57;28.50;;;0.70;;
3817;SDS011;1924;48.078;11.516;2023-05-17T12:33:26;28.57;;;0.77;;
3817;SDS011;1924;48.078;11.516;2023-05-17T12:35:55;28.27;;;0.70;;
3817;SDS011;1924;48.078;11.516;2023-05-17T12:38:23;28.30;;;0.80;;
3817;SDS011;1924;48.078;11.516;2023-05-17T12:40:51;28.20;;;0.70;;
3817;SDS011;1924;48.078;11.516;2023-05-17T12:43:22;28.20;;;0.70;;
3817;SDS011;1924;48.078;11.516;2023-05-17T12:45:49;28.03;;;0.80;;
3817;SDS011;1924;48.078;11.516;2023-05-17T12:48:18;28.30;;;0.80;;
3817;SDS011;1924;48.078;11.516;2023-05-17T12:50:50;28.07;;;0.70;;
3817;SDS011;1924;48.078;11.516;2023-05-17T12:53:19;28.30;;;0.80;;
3817;SDS011;1924;48.078;11.516;2023-05-17T12:55:45;28.07;;;0.70;;
3817;SDS011;1924;48.078;11.516;2023-05-17T12:58:13;28.20;;;0.70;;
3817;SDS011;1924;48.078;11.516;2023-05-17T13:00:41;28.30;;;0.80;;
3817;SDS011;1924;48.078;11.516;2023-05-17T13:03:22;28.40;;;0.73;;
3817;SDS011;1924;48.078;11.516;2023-05-17T13:05:56;28.30;;;0.70;;
3817;SDS011;1924;48.078;11.516;2023-05-17T13:08:24;28.30;;;0.70;;
3817;SDS011;1924;48.078;11.516;2023-05-17T13:10:50;28.20;;;0.70;;
3817;SDS011;1924;48.078;11.516;2023-05-17T13:13:17;28.20;;;0.80;;
3817;SDS011;1924;48.078;11.516;2023-05-17T13:15:46;28.13;;;0.77;;
3817;SDS011;1924;48.078;11.516;2023-05-17T13:18:13;28.20;;;0.70;;
3817;SDS011;1924;48.078;11.516;2023-05-17T13:20:40;28.20;;;0.80;;
3817;SDS011;1924;48.078;11.516;2023-05-17T13:23:08;28.30;;;0.70;;
3817;SDS011;1924;48.078;11.516;2023-05-17T13:25:34;28.27;;;0.80;;
3817;SDS011;1924;48.078;11.516;2023-05-17T13:28:01;28.20;;;0.80;;
3817;SDS011;1924;48.078;11.516;2023-05-17T13:30:28;28.30;;;0.77;;
3817;SDS011;1924;48.078;11.516;2023-05-17T13:32:56;28.13;;;0.77;;
3817;SDS011;1924;48.078;11.516;2023-05-17T13:35:23;28.10;;;0.70;;
3817;SDS011;1924;48.078;11.516;2023-05-17T13:37:50;28.30;;;0.80;;
3817;SDS011;1924;48.078;11.516;2023-05-17T13:40:17;28.17;;;0.70;;
3817;SDS011;1924;48.078;11.516;2023-05-17T13:42:44;28.20;;;0.70;;
3817;SDS011;1924;48.078;11.516;2023-05-17T13:45:10;28.00;;;0.70;;
3817;SDS011;1924;48.078;11.516;2023-05-17T13:47:37;28.30;;;0.70;;
3817;SDS011;1924;48.078;11.516;2023-05-17T13:50:06;28.40;;;0.70;;
3817;SDS011;1924;48.078;11.516;2023-05-17T13:52:34;28.20;;;0.70;;
3817;SDS011;1924;48.078;11.516;2023-05-17T13:55:01;28.37;;;0.77;;
3817;SDS011;1924;48.078;11.516;2023-05-17T13:57:27;28.40;;;0.73;;
3817;SDS011;1924;48.078;11.516;2023-05-17T13:59:54;28.30;;;0.70;;
3817;SDS011;1924;48.078;11.516;2023-05-17T14:02:21;28.37;;;0.80;;
3817;SDS011;1924;48.078;11.516;2023-05-17T14:04:48;28.30;;;0.70;;
3817;SDS011;1924;48.078;11.516;2023-05-17T14:07:16;28.40;;;0.80;;
3817;SDS011;1924;48.078;11.516;2023-05-17T14:09:42;28.10;;;0.70;;
3817;SDS011;1924;48.078;11.516;2023-05-17T14:12:09;28.10;;;0.70;;
3817;SDS011;1924;48.078;11.516;2023-05-17T14:14:36;28.20;;;0.80;;
3817;SDS011;1924;48.078;11.516;2023-05-17T14:17:02;28.30;;;0.80;;
3817;SDS011;1924;48.078;11.516;2023-05-17T14:19:29;28.20;;;0.70;;
3817;SDS011;1924;48.078;11.516;2023-05-17T14:21:56;28.10;;;0.70;;
3817;SDS011;1924;48.078;11.516;2023-05-17T14:24:24;28.07;;;0.70;;
3817;SDS011;1924;48.078;11.516;2023-05-17T14:26:51;28.20;;;0.70;;
3817;SDS011;1924;48.078;11.516;2023-05-17T14:29:18;28.40;;;0.70;;
3817;SDS011;1924;48.078;11.516;2023-05-17T14:31:44;28.20;;;0.70;;
3817;SDS011;1924;48.078;11.516;2023-05-17T14:34:11;28.30;;;0.80;;
3817;SDS011;1924;48.078;11.516;2023-05-17T14:36:38;28.40;;;0.80;;
3817;SDS011;1924;48.078;11.516;2023-05-17T14:39:05;28.30;;;0.70;;
3817;SDS011;1924;48.078;11.516;2023-05-17T14:41:33;28.27;;;0.70;;
3817;SDS011;1924;48.078;11.516;2023-05-17T14:43:59;28.30;;;0.70;;
3817;SDS011;1924;48.078;11.516;2023-05-17T14:46:26;28.30;;;0.70;;
3817;SDS011;1924;48.078;11.516;2023-05-17T14:48:53;28.30;;;0.70;;
3817;SDS011;1924;48.078;11.516;2023-05-17T14:51:20;28.20;;;0.77;;
3817;SDS011;1924;48.078;11.516;2023-05-17T14:53:47;28.03;;;0.70;;
3817;SDS011;1924;48.078;11.516;2023-05-17T14:56:13;28.00;;;0.70;;
3817;SDS011;1924;48.078;11.516;2023-05-17T14:58:42;28.03;;;0.70;;
3817;SDS011;1924;48.078;11.516;2023-05-17T15:01:08;28.20;;;0.70;;
3817;SDS011;1924;48.078;11.516;2023-05-17T15:03:36;28.30;;;0.80;;
3817;SDS011;1924;48.078;11.516;2023-05-17T15:06:03;28.10;;;0.70;;
3817;SDS011;1924;48.078;11.516;2023-05-17T15:08:30;28.20;;;0.70;;
3817;SDS011;1924;48.078;11.516;2023-05-17T15:10:57;28.20;;;0.70;;
3817;SDS011;1924;48.078;11.516;2023-05-17T15:13:24;28.30;;;0.70;;
3817;SDS011;1924;48.078;11.516;2023-05-17T15:15:52;28.10;;;0.70;;
3817;SDS011;1924;48.078;11.516;2023-05-17T15:18:20;28.20;;;0.70;;
3817;SDS011;1924;48.078;11.516;2023-05-17T15:20:47;28.20;;;0.80;;
3817;SDS011;1924;48.078;11.516;2023-05-17T15:23:13;28.17;;;0.70;;
3817;SDS011;1924;48.078;11.516;2023-05-17T15:25:40;28.00;;;0.77;;
3817;SDS011;1924;48.078;11.516;2023-05-17T15:28:07;28.20;;;0.70;;
3817;SDS011;1924;48.078;11.516;2023-05-17T15:30:33;28.30;;;0.70;;
3817;SDS011;1924;48.078;11.516;2023-05-17T15:33:01;28.30;;;0.70;;
3817;SDS011;1924;48.078;11.516;2023-05-17T15:35:28;28.20;;;0.70;;
3817;SDS011;1924;48.078;11.516;2023-05-17T15:37:56;28.10;;;0.70;;
3817;SDS011;1924;48.078;11.516;2023-05-17T15:40:23;28.10;;;0.70;;
3817;SDS011;1924;48.078;11.516;2023-05-17T15:42:50;28.10;;;0.70;;
3817;SDS011;1924;48.078;11.516;2023-05-17T15:45:17;28.20;;;0.80;;
3817;SDS011;1924;48.078;11.516;2023-05-17T15:47:45;28.10;;;0.80;;
3817;SDS011;1924;48.078;11.516;2023-05-17T15:50:14;28.10;;;0.80;;
3817;SDS011;1924;48.078;11.516;2023-05-17T15:52:41;28.10;;;0.80;;
3817;SDS011;1924;48.078;11.516;2023-05-17T15:55:08;28.20;;;0.70;;
3817;SDS011;1924;48.078;11.516;2023-05-17T15:57:35;28.10;;;0.70;;
3817;SDS011;1924;48.078;11.516;2023-05-17T16:00:01;28.00;;;0.70;;
3817;SDS011;1924;48.078;11.516;2023-05-17T16:02:29;28.20;;;0.80;;
3817;SDS011;1924;48.078;11.516;2023-05-17T16:04:56;28.20;;;0.70;;
3817;SDS011;1924;48.078;11.516;2023-05-17T16:07:23;27.90;;;0.70;;
3817;SDS011;1924;48.078;11.516;2023-05-17T16:09:51;28.10;;;0.70;;
3817;SDS011;1924;48.078;11.516;2023-05-17T16:12:18;28.00;;;0.70;;
3817;SDS011;1924;48.078;11.516;2023-05-17T16:14:44;28.30;;;0.70;;
3817;SDS011;1924;48.078;11.516;2023-05-17T16:17:11;28.20;;;0.70;;